Time;durP1;ratioP1;P1;durP2;ratioP2;P2;SDS_P1;SDS_P2;PMS_P1;PMS_P2;Temp;Humidity;BMP_temperature;BMP_pressure;BME280_temperature;BME280_humidity;BME280_pressure;Samples;Min_cycle;Max_cycle;Signal;HPM_P1;HPM_P2
2022/05/09 00:01:27;;;;;;;;;;;19.40;99.90;;;;;;5115834;28;19916;-47
2022/05/09 00:03:52;;;;;;;;;;;19.40;99.90;;;;;;5114693;28;20045;-50
2022/05/09 00:06:18;;;;;;;;;;;19.40;99.90;;;;;;5115451;28;20045;-48
2022/05/09 00:08:43;;;;;;;;;;;19.30;99.90;;;;;;5115416;28;20366;-45
2022/05/09 00:11:09;;;;;;;;;;;19.30;99.90;;;;;;5115689;28;19913;-48
2022/05/09 00:13:36;;;;;;;;;;;19.30;99.90;;;;;;5115728;28;19911;-46
2022/05/09 00:16:02;;;;;;;;;;;19.30;99.90;;;;;;5115726;28;19908;-44
2022/05/09 00:18:27;;;;;;;;;;;19.30;99.90;;;;;;5115314;28;19919;-45
2022/05/09 00:20:53;;;;;;;;;;;19.30;99.90;;;;;;5115233;28;19954;-44
2022/05/09 00:23:18;;;;;;;;;;;19.30;99.90;;;;;;5115267;28;20011;-47
2022/05/09 00:25:44;;;;;;;;;;;19.30;99.90;;;;;;5115455;28;20014;-46
2022/05/09 00:28:09;;;;;;;;;;;19.30;99.90;;;;;;5115168;28;20045;-45
2022/05/09 00:30:35;;;;;;;;;;;19.30;99.90;;;;;;5115298;28;20265;-44
2022/05/09 00:33:00;;;;;;;;;;;19.30;99.90;;;;;;5115217;28;20413;-47
2022/05/09 00:35:26;;;;;;;;;;;19.30;99.90;;;;;;5115231;28;19912;-47
2022/05/09 00:37:51;;;;;;;;;;;19.30;99.90;;;;;;5114974;28;19908;-48
2022/05/09 00:40:17;;;;;;;;;;;19.30;99.90;;;;;;5114882;28;19907;-50
2022/05/09 00:42:46;;;;;;;;;;;19.30;99.90;;;;;;5115156;28;19927;-45
2022/05/09 00:45:13;;;;;;;;;;;19.30;99.90;;;;;;5115065;28;19907;-48
2022/05/09 00:47:38;;;;;;;;;;;19.30;99.90;;;;;;5114745;28;19908;-45
2022/05/09 00:50:05;;;;;;;;;;;19.20;99.90;;;;;;5115007;28;20002;-44
2022/05/09 00:52:31;;;;;;;;;;;19.30;99.90;;;;;;5114569;28;19981;-48
2022/05/09 00:55:03;;;;;;;;;;;19.20;99.90;;;;;;5114616;28;19911;-45
2022/05/09 00:57:40;;;;;;;;;;;19.20;99.90;;;;;;5114890;28;20257;-46
2022/05/09 01:00:11;;;;;;;;;;;19.20;99.90;;;;;;5114462;28;19908;-45
2022/05/09 01:02:37;;;;;;;;;;;19.20;99.90;;;;;;5114499;28;19961;-44
2022/05/09 01:05:03;;;;;;;;;;;19.20;99.90;;;;;;5114831;28;19957;-46
2022/05/09 01:07:30;;;;;;;;;;;19.20;99.90;;;;;;5114803;28;20366;-46
2022/05/09 01:09:57;;;;;;;;;;;19.20;99.90;;;;;;5114752;28;19908;-48
2022/05/09 01:12:25;;;;;;;;;;;19.20;99.90;;;;;;5114629;28;19920;-47
2022/05/09 01:14:51;;;;;;;;;;;19.20;99.90;;;;;;5114362;28;19961;-47
2022/05/09 01:17:16;;;;;;;;;;;19.20;99.90;;;;;;5114488;28;19915;-45
2022/05/09 01:19:42;;;;;;;;;;;19.20;99.90;;;;;;5114346;28;19912;-48
2022/05/09 01:22:19;;;;;;;;;;;19.20;99.90;;;;;;5114541;28;19908;-48
2022/05/09 01:24:44;;;;;;;;;;;19.20;99.90;;;;;;5114206;28;19907;-46
2022/05/09 01:27:10;;;;;;;;;;;19.20;99.90;;;;;;5114484;28;19908;-46
2022/05/09 01:29:54;;;;;;;;;;;19.10;99.90;;;;;;5114423;28;19919;-49
2022/05/09 01:32:23;;;;;;;;;;;19.10;99.90;;;;;;5114246;28;19920;-44
2022/05/09 01:34:53;;;;;;;;;;;19.20;99.90;;;;;;5114506;28;20261;-47
2022/05/09 01:37:20;;;;;;;;;;;19.10;99.90;;;;;;5114190;28;19908;-44
2022/05/09 01:39:46;;;;;;;;;;;19.10;99.90;;;;;;5114354;28;19986;-44
2022/05/09 01:42:12;;;;;;;;;;;19.10;99.90;;;;;;5114392;28;19951;-45
2022/05/09 01:44:38;;;;;;;;;;;19.10;99.90;;;;;;5114335;28;19930;-45
2022/05/09 01:49:48;;;;;;;;;;;19.10;99.90;;;;;;5114117;28;20388;-45
2022/05/09 01:52:14;;;;;;;;;;;19.10;99.90;;;;;;5096083;28;20002;-45
2022/05/09 01:54:43;;;;;;;;;;;19.10;99.90;;;;;;5113960;28;20269;-49
2022/05/09 01:57:09;;;;;;;;;;;19.10;99.90;;;;;;5114246;28;19908;-46
2022/05/09 01:59:34;;;;;;;;;;;19.10;99.90;;;;;;5113869;28;19907;-44
2022/05/09 02:02:03;;;;;;;;;;;19.10;99.90;;;;;;5114099;28;19908;-50
2022/05/09 02:04:28;;;;;;;;;;;19.00;99.90;;;;;;5114206;28;20006;-44
2022/05/09 02:06:55;;;;;;;;;;;19.00;99.90;;;;;;5114112;28;20380;-46
2022/05/09 02:09:20;;;;;;;;;;;19.00;99.90;;;;;;5114465;28;19912;-47
2022/05/09 02:11:46;;;;;;;;;;;19.00;99.90;;;;;;5113704;28;20251;-49
2022/05/09 02:14:11;;;;;;;;;;;19.00;99.90;;;;;;5095920;28;19912;-48
2022/05/09 02:16:37;;;;;;;;;;;19.00;99.90;;;;;;5114088;28;19908;-46
2022/05/09 02:19:04;;;;;;;;;;;19.00;99.90;;;;;;5113803;28;20389;-48
2022/05/09 02:21:30;;;;;;;;;;;19.00;99.90;;;;;;5113724;28;20377;-45
2022/05/09 02:23:56;;;;;;;;;;;19.00;99.90;;;;;;5095776;28;19911;-44
2022/05/09 02:26:21;;;;;;;;;;;19.00;99.90;;;;;;5114025;28;19908;-47
2022/05/09 02:28:47;;;;;;;;;;;19.00;99.90;;;;;;5116897;28;19908;-48
2022/05/09 02:31:13;;;;;;;;;;;19.00;99.90;;;;;;5117704;28;20039;-49
2022/05/09 02:33:38;;;;;;;;;;;19.00;99.90;;;;;;5117787;28;19927;-47
2022/05/09 02:36:03;;;;;;;;;;;18.90;99.90;;;;;;5117614;28;20347;-45
2022/05/09 02:38:29;;;;;;;;;;;19.00;99.90;;;;;;5117334;28;19962;-46
2022/05/09 02:40:55;;;;;;;;;;;19.00;99.90;;;;;;5117485;28;19908;-48
2022/05/09 02:43:21;;;;;;;;;;;18.90;99.90;;;;;;5117166;28;19995;-46
2022/05/09 02:45:46;;;;;;;;;;;18.90;99.90;;;;;;5117802;28;20250;-44
2022/05/09 02:48:13;;;;;;;;;;;18.90;99.90;;;;;;5117446;28;20468;-46
2022/05/09 02:50:39;;;;;;;;;;;18.90;99.90;;;;;;5116962;28;20017;-46
2022/05/09 02:53:04;;;;;;;;;;;18.90;99.90;;;;;;5116965;28;19986;-48
2022/05/09 02:55:33;;;;;;;;;;;18.90;99.90;;;;;;5116958;28;19908;-45
2022/05/09 02:58:00;;;;;;;;;;;18.90;99.90;;;;;;5117225;28;19911;-50
2022/05/09 03:00:29;;;;;;;;;;;18.90;99.90;;;;;;5098935;28;20296;-46
2022/05/09 03:05:39;;;;;;;;;;;18.90;99.90;;;;;;5116865;28;19942;-45
2022/05/09 03:08:05;;;;;;;;;;;18.90;99.90;;;;;;5116679;28;19930;-44
2022/05/09 03:10:31;;;;;;;;;;;18.90;99.90;;;;;;5098599;28;19908;-46
2022/05/09 03:12:59;;;;;;;;;;;18.90;99.90;;;;;;5116631;28;19908;-44
2022/05/09 03:15:25;;;;;;;;;;;18.90;99.90;;;;;;5116853;28;19914;-44
2022/05/09 03:17:50;;;;;;;;;;;18.90;99.90;;;;;;5098524;28;19908;-43
2022/05/09 03:20:17;;;;;;;;;;;18.90;99.90;;;;;;5117096;28;19919;-44
2022/05/09 03:22:42;;;;;;;;;;;18.90;99.90;;;;;;5116345;28;20334;-48
2022/05/09 03:25:08;;;;;;;;;;;18.90;99.90;;;;;;5116635;28;19946;-48
2022/05/09 03:27:33;;;;;;;;;;;18.90;99.90;;;;;;5116583;28;19907;-47
2022/05/09 03:29:59;;;;;;;;;;;18.90;99.90;;;;;;5116264;28;20354;-46
2022/05/09 03:32:24;;;;;;;;;;;18.90;99.90;;;;;;5116275;28;20002;-46
2022/05/09 03:34:50;;;;;;;;;;;18.90;99.90;;;;;;5116020;28;20371;-44
2022/05/09 03:37:15;;;;;;;;;;;18.80;99.90;;;;;;5116307;28;19908;-47
2022/05/09 03:39:41;;;;;;;;;;;18.80;99.90;;;;;;5115169;28;19914;-46
2022/05/09 03:42:06;;;;;;;;;;;18.80;99.90;;;;;;5116240;28;19908;-49
2022/05/09 03:44:32;;;;;;;;;;;18.80;99.90;;;;;;5116531;28;19962;-47
2022/05/09 03:46:58;;;;;;;;;;;18.80;99.90;;;;;;5097875;28;20273;-48
2022/05/09 03:49:24;;;;;;;;;;;18.80;99.90;;;;;;5115835;28;19916;-45
2022/05/09 03:51:50;;;;;;;;;;;18.80;99.90;;;;;;5116036;28;20070;-48
2022/05/09 03:54:15;;;;;;;;;;;18.80;99.90;;;;;;5097538;28;19911;-48
2022/05/09 03:56:41;;;;;;;;;;;18.80;99.90;;;;;;5115557;28;20336;-49
2022/05/09 03:59:08;;;;;;;;;;;18.80;99.90;;;;;;5115632;28;19908;-45
2022/05/09 04:01:34;;;;;;;;;;;18.80;99.90;;;;;;5115590;28;19915;-45
2022/05/09 04:04:00;;;;;;;;;;;18.80;99.90;;;;;;5115595;28;20370;-44
2022/05/09 04:06:25;;;;;;;;;;;18.80;99.90;;;;;;5115858;28;19988;-48
2022/05/09 04:08:51;;;;;;;;;;;18.80;99.90;;;;;;5115690;28;19996;-46
2022/05/09 04:11:16;;;;;;;;;;;18.80;99.90;;;;;;5115318;28;20053;-45
2022/05/09 04:13:42;;;;;;;;;;;18.80;99.90;;;;;;5115454;28;19969;-44
2022/05/09 04:18:52;;;;;;;;;;;18.80;99.90;;;;;;5115179;28;19914;-47
2022/05/09 04:21:17;;;;;;;;;;;18.80;99.90;;;;;;5097053;28;19947;-50
2022/05/09 04:23:43;;;;;;;;;;;18.80;99.90;;;;;;5115383;28;19953;-47
2022/05/09 04:26:09;;;;;;;;;;;18.80;99.90;;;;;;5115044;28;19935;-47
2022/05/09 04:28:34;;;;;;;;;;;18.80;99.90;;;;;;5115411;28;20317;-47
2022/05/09 04:31:00;;;;;;;;;;;18.80;99.90;;;;;;5115533;28;19912;-44
2022/05/09 04:33:25;;;;;;;;;;;18.80;99.90;;;;;;5114996;28;19970;-49
2022/05/09 04:35:51;;;;;;;;;;;18.80;99.90;;;;;;5115127;28;19907;-46
2022/05/09 04:38:21;;;;;;;;;;;18.80;99.90;;;;;;5114742;28;19943;-49
2022/05/09 04:40:51;;;;;;;;;;;18.80;99.90;;;;;;5114751;28;19917;-48
2022/05/09 04:43:21;;;;;;;;;;;18.80;99.90;;;;;;5114943;28;19916;-44
2022/05/09 04:45:48;;;;;;;;;;;18.80;99.90;;;;;;5114974;28;20006;-48
2022/05/09 04:48:14;;;;;;;;;;;18.80;99.90;;;;;;5096730;28;20376;-44
2022/05/09 04:50:40;;;;;;;;;;;18.80;99.90;;;;;;5114470;28;19962;-45
2022/05/09 04:53:05;;;;;;;;;;;18.80;99.90;;;;;;5115054;28;19961;-49
2022/05/09 04:55:31;;;;;;;;;;;18.70;99.90;;;;;;5114735;28;19914;-43
2022/05/09 04:57:56;;;;;;;;;;;18.80;99.90;;;;;;5114633;28;19931;-45
2022/05/09 05:00:25;;;;;;;;;;;18.70;99.90;;;;;;5114411;28;20426;-47
2022/05/09 05:02:50;;;;;;;;;;;18.80;99.90;;;;;;5114589;28;19912;-45
2022/05/09 05:05:16;;;;;;;;;;;18.80;99.90;;;;;;5114561;28;19916;-46
2022/05/09 05:07:42;;;;;;;;;;;18.70;99.90;;;;;;5114441;28;19914;-48
2022/05/09 05:10:08;;;;;;;;;;;18.70;99.90;;;;;;5096160;28;19908;-46
2022/05/09 05:12:34;;;;;;;;;;;18.80;99.90;;;;;;5114105;28;19915;-45
2022/05/09 05:15:00;;;;;;;;;;;18.80;99.90;;;;;;5114114;28;20006;-43
2022/05/09 05:17:26;;;;;;;;;;;18.70;99.90;;;;;;5114235;28;20319;-45
2022/05/09 05:19:51;;;;;;;;;;;18.70;99.90;;;;;;5114065;28;19908;-46
2022/05/09 05:22:17;;;;;;;;;;;18.70;99.90;;;;;;5114009;28;19908;-49
2022/05/09 05:24:47;;;;;;;;;;;18.70;99.90;;;;;;5114220;28;19912;-48
2022/05/09 05:27:13;;;;;;;;;;;18.70;99.90;;;;;;5113845;28;20270;-47
2022/05/09 05:29:38;;;;;;;;;;;18.70;99.90;;;;;;5114065;28;19998;-46
2022/05/09 05:32:13;;;;;;;;;;;18.70;99.90;;;;;;5114185;28;20084;-47
2022/05/09 05:34:39;;;;;;;;;;;18.70;99.90;;;;;;5114165;28;19916;-48
2022/05/09 05:37:04;;;;;;;;;;;18.70;99.90;;;;;;5113905;28;19953;-48
2022/05/09 05:39:31;;;;;;;;;;;18.70;99.90;;;;;;5113707;28;19915;-47
2022/05/09 05:41:57;;;;;;;;;;;18.70;99.90;;;;;;5113713;28;19908;-47
2022/05/09 05:44:22;;;;;;;;;;;18.70;99.90;;;;;;5113960;28;20308;-46
2022/05/09 05:46:49;;;;;;;;;;;18.70;99.90;;;;;;5113952;28;19907;-47
2022/05/09 05:49:14;;;;;;;;;;;18.70;99.90;;;;;;5113716;28;20338;-45
2022/05/09 05:51:39;;;;;;;;;;;18.70;99.90;;;;;;5113615;28;19925;-44
2022/05/09 05:54:05;;;;;;;;;;;18.70;99.90;;;;;;5113731;28;19916;-49
2022/05/09 05:56:31;;;;;;;;;;;18.70;99.90;;;;;;5113601;28;20231;-48
2022/05/09 05:58:57;;;;;;;;;;;18.70;99.90;;;;;;5113598;28;19908;-44
2022/05/09 06:01:23;;;;;;;;;;;18.70;99.90;;;;;;5114167;28;19934;-49
2022/05/09 06:03:48;;;;;;;;;;;18.60;99.90;;;;;;5117136;28;19908;-46
2022/05/09 06:06:15;;;;;;;;;;;18.60;99.90;;;;;;5117235;28;19908;-56
2022/05/09 06:08:43;;;;;;;;;;;18.60;99.90;;;;;;5117359;28;19915;-48
2022/05/09 06:11:10;;;;;;;;;;;18.60;99.90;;;;;;5117364;28;19918;-45
2022/05/09 06:13:35;;;;;;;;;;;18.60;99.90;;;;;;5117383;28;20370;-45
2022/05/09 06:16:01;;;;;;;;;;;18.60;99.90;;;;;;5117695;28;19953;-46
2022/05/09 06:18:26;;;;;;;;;;;18.60;99.90;;;;;;5117887;28;19947;-48
2022/05/09 06:20:52;;;;;;;;;;;18.60;99.90;;;;;;5117795;28;20026;-45
2022/05/09 06:23:18;;;;;;;;;;;18.60;99.90;;;;;;5117624;28;19960;-47
2022/05/09 06:25:46;;;;;;;;;;;18.60;99.90;;;;;;5117234;28;19994;-48
2022/05/09 06:28:12;;;;;;;;;;;18.60;99.90;;;;;;5117453;28;19943;-47
2022/05/09 06:30:38;;;;;;;;;;;18.70;99.90;;;;;;5117125;28;20384;-46
2022/05/09 06:33:04;;;;;;;;;;;18.70;99.90;;;;;;5117158;28;19955;-46
2022/05/09 06:35:29;;;;;;;;;;;18.70;99.90;;;;;;5116899;28;19908;-48
2022/05/09 06:37:56;;;;;;;;;;;18.70;99.90;;;;;;5117384;28;19908;-46
2022/05/09 06:40:22;;;;;;;;;;;18.70;99.90;;;;;;5116900;28;19907;-46
2022/05/09 06:42:51;;;;;;;;;;;18.70;99.90;;;;;;5116814;28;20355;-46
2022/05/09 06:45:17;;;;;;;;;;;18.70;99.90;;;;;;5116966;28;19918;-47
2022/05/09 06:47:50;;;;;;;;;;;18.70;99.90;;;;;;5116548;28;19912;-47
2022/05/09 06:50:17;;;;;;;;;;;18.70;99.90;;;;;;5117003;28;19915;-48
2022/05/09 06:52:42;;;;;;;;;;;18.70;99.90;;;;;;5116670;28;19923;-48
2022/05/09 06:55:08;;;;;;;;;;;18.70;99.90;;;;;;5116713;28;19908;-48
2022/05/09 06:57:38;;;;;;;;;;;18.70;99.90;;;;;;5116794;28;19961;-45
2022/05/09 07:00:04;;;;;;;;;;;18.70;99.90;;;;;;5116501;28;19911;-45
2022/05/09 07:02:31;;;;;;;;;;;18.70;99.90;;;;;;5116430;28;19914;-48
2022/05/09 07:04:56;;;;;;;;;;;18.70;99.90;;;;;;5116840;28;19908;-47
2022/05/09 07:07:22;;;;;;;;;;;18.70;99.90;;;;;;5098214;28;20241;-47
2022/05/09 07:09:47;;;;;;;;;;;18.70;99.90;;;;;;5097935;28;19908;-45
2022/05/09 07:12:13;;;;;;;;;;;18.70;99.90;;;;;;5098021;28;19920;-45
2022/05/09 07:14:38;;;;;;;;;;;18.70;99.90;;;;;;5116330;28;19908;-47
2022/05/09 07:17:05;;;;;;;;;;;18.70;99.90;;;;;;5116511;28;19911;-45
2022/05/09 07:19:31;;;;;;;;;;;18.70;99.90;;;;;;5116529;28;19915;-49
2022/05/09 07:21:57;;;;;;;;;;;18.70;99.90;;;;;;5116254;28;19976;-48
2022/05/09 07:24:22;;;;;;;;;;;18.70;99.90;;;;;;5116243;28;19916;-48
2022/05/09 07:26:48;;;;;;;;;;;18.70;99.90;;;;;;5116409;28;19915;-45
2022/05/09 07:29:13;;;;;;;;;;;18.70;99.90;;;;;;5116072;28;19908;-50
2022/05/09 07:31:39;;;;;;;;;;;18.70;99.90;;;;;;5116216;28;19915;-47
2022/05/09 07:34:04;;;;;;;;;;;18.70;99.90;;;;;;5097541;28;19927;-52
2022/05/09 07:36:30;;;;;;;;;;;18.70;99.90;;;;;;5116157;28;19907;-50
2022/05/09 07:38:56;;;;;;;;;;;18.70;99.90;;;;;;5116067;28;19908;-47
2022/05/09 07:41:21;;;;;;;;;;;18.70;99.90;;;;;;5116108;28;20355;-47
2022/05/09 07:43:47;;;;;;;;;;;18.70;99.90;;;;;;5116043;28;19914;-46
2022/05/09 07:46:13;;;;;;;;;;;18.70;99.90;;;;;;5115802;28;19911;-51
2022/05/09 07:48:40;;;;;;;;;;;18.70;99.90;;;;;;5115772;28;19907;-45
2022/05/09 07:51:05;;;;;;;;;;;18.70;99.90;;;;;;5115406;28;19920;-48
2022/05/09 07:53:32;;;;;;;;;;;18.80;99.90;;;;;;5115683;28;19962;-45
2022/05/09 07:56:00;;;;;;;;;;;18.80;99.90;;;;;;5115727;28;19915;-45
2022/05/09 07:58:25;;;;;;;;;;;18.80;99.90;;;;;;5115352;28;19931;-46
2022/05/09 08:00:52;;;;;;;;;;;18.80;99.90;;;;;;5115248;28;20343;-49
2022/05/09 08:03:19;;;;;;;;;;;18.80;99.90;;;;;;5115615;28;19914;-48
2022/05/09 08:05:45;;;;;;;;;;;18.80;99.90;;;;;;5115657;28;19908;-46
2022/05/09 08:08:12;;;;;;;;;;;18.80;99.90;;;;;;5115517;28;19915;-49
2022/05/09 08:10:38;;;;;;;;;;;18.80;99.90;;;;;;5115435;28;19907;-47
2022/05/09 08:13:04;;;;;;;;;;;18.70;99.90;;;;;;5115193;28;19985;-45
2022/05/09 08:15:31;;;;;;;;;;;18.70;99.90;;;;;;5115217;28;19969;-51
2022/05/09 08:17:58;;;;;;;;;;;18.70;99.90;;;;;;5097059;28;19911;-48
2022/05/09 08:20:24;;;;;;;;;;;18.70;99.90;;;;;;5115098;28;19912;-45
2022/05/09 08:22:58;;;;;;;;;;;18.70;99.90;;;;;;5115132;28;20377;-50
2022/05/09 08:25:24;;;;;;;;;;;18.80;99.90;;;;;;5114642;28;19912;-46
2022/05/09 08:27:49;;;;;;;;;;;18.70;99.90;;;;;;5115215;28;20316;-48
2022/05/09 08:30:15;;;;;;;;;;;18.70;99.90;;;;;;5114920;28;19914;-48
2022/05/09 08:32:42;;;;;;;;;;;18.70;99.90;;;;;;5096506;28;20479;-46
2022/05/09 08:35:09;;;;;;;;;;;18.70;99.90;;;;;;5096700;28;19908;-45
2022/05/09 08:37:35;;;;;;;;;;;18.70;99.90;;;;;;5114673;28;19929;-50
2022/05/09 08:40:01;;;;;;;;;;;18.70;99.90;;;;;;5115010;28;19995;-46
2022/05/09 08:42:48;;;;;;;;;;;18.80;99.90;;;;;;5115111;28;19908;-45
2022/05/09 08:45:22;;;;;;;;;;;18.80;99.90;;;;;;5115287;28;19911;-50
2022/05/09 08:47:54;;;;;;;;;;;18.70;99.90;;;;;;5114890;28;20384;-47
2022/05/09 08:50:23;;;;;;;;;;;18.70;99.90;;;;;;5114820;28;19930;-49
2022/05/09 08:52:59;;;;;;;;;;;18.80;99.90;;;;;;5114495;28;19911;-46
2022/05/09 08:55:32;;;;;;;;;;;18.80;99.90;;;;;;5114587;28;19994;-47
2022/05/09 08:58:00;;;;;;;;;;;18.80;99.90;;;;;;5114610;28;20371;-49
2022/05/09 09:00:29;;;;;;;;;;;18.80;99.90;;;;;;5114430;28;19911;-47
2022/05/09 09:03:09;;;;;;;;;;;18.70;99.90;;;;;;5114617;28;19908;-48
2022/05/09 09:05:36;;;;;;;;;;;18.70;99.90;;;;;;5114529;28;20018;-49
2022/05/09 09:08:20;;;;;;;;;;;18.70;99.90;;;;;;5114126;28;19908;-51
2022/05/09 09:10:55;;;;;;;;;;;18.80;99.90;;;;;;5114152;28;19930;-51
2022/05/09 09:13:35;;;;;;;;;;;18.80;99.90;;;;;;5114165;28;19911;-46
2022/05/09 09:16:04;;;;;;;;;;;18.70;99.90;;;;;;5114861;28;19917;-45
2022/05/09 09:18:29;;;;;;;;;;;18.80;99.90;;;;;;5113833;28;19908;-46
2022/05/09 09:21:06;;;;;;;;;;;18.80;99.90;;;;;;5095981;28;19915;-46
2022/05/09 09:23:34;;;;;;;;;;;18.70;99.90;;;;;;5114486;28;20321;-47
2022/05/09 09:26:20;;;;;;;;;;;18.80;99.90;;;;;;5095922;28;19908;-45
2022/05/09 09:28:54;;;;;;;;;;;18.70;99.90;;;;;;5114126;28;19908;-49
2022/05/09 09:31:26;;;;;;;;;;;18.80;99.90;;;;;;5113963;28;19990;-49
2022/05/09 09:33:55;;;;;;;;;;;18.70;99.90;;;;;;5114008;28;19926;-49
2022/05/09 09:36:22;;;;;;;;;;;18.70;99.90;;;;;;5114771;28;19907;-49
2022/05/09 09:38:54;;;;;;;;;;;18.70;99.90;;;;;;5118286;28;19908;-47
2022/05/09 09:41:20;;;;;;;;;;;18.70;99.90;;;;;;5118204;28;20427;-49
2022/05/09 09:43:46;;;;;;;;;;;18.70;99.90;;;;;;5118362;28;19908;-48
2022/05/09 09:46:11;;;;;;;;;;;18.70;99.90;;;;;;5100095;28;20311;-47
2022/05/09 09:48:37;;;;;;;;;;;18.70;99.90;;;;;;5118079;28;19951;-49
2022/05/09 09:51:06;;;;;;;;;;;18.70;99.90;;;;;;5117774;28;19923;-48
2022/05/09 09:53:35;;;;;;;;;;;18.70;99.90;;;;;;5118116;28;19963;-48
2022/05/09 09:56:20;;;;;;;;;;;18.70;99.90;;;;;;5118064;28;19907;-48
2022/05/09 09:58:47;;;;;;;;;;;18.70;99.90;;;;;;5117138;28;19994;-55
2022/05/09 10:01:34;;;;;;;;;;;18.70;99.90;;;;;;5117982;28;19951;-47
2022/05/09 10:04:04;;;;;;;;;;;18.70;99.90;;;;;;5117998;28;19907;-47
2022/05/09 10:06:30;;;;;;;;;;;18.70;99.90;;;;;;5099550;28;19908;-45
2022/05/09 10:09:06;;;;;;;;;;;18.70;99.90;;;;;;5117624;28;19973;-48
2022/05/09 10:11:32;;;;;;;;;;;18.70;99.90;;;;;;5117681;28;19923;-48
2022/05/09 10:14:03;;;;;;;;;;;18.70;99.90;;;;;;5117889;28;20318;-49
2022/05/09 10:16:37;;;;;;;;;;;18.70;99.90;;;;;;5117382;28;19951;-49
2022/05/09 10:19:06;;;;;;;;;;;18.70;99.90;;;;;;5117731;28;19926;-50
2022/05/09 10:24:57;;;;;;;;;;;18.70;99.90;;;;;;5117388;28;20037;-50
2022/05/09 10:27:27;;;;;;;;;;;18.70;99.90;;;;;;5113002;28;19908;-51
2022/05/09 10:29:56;;;;;;;;;;;18.70;99.90;;;;;;5099259;28;19935;-48
2022/05/09 10:32:39;;;;;;;;;;;18.70;99.90;;;;;;5116976;28;19926;-49
2022/05/09 10:35:12;;;;;;;;;;;18.70;99.90;;;;;;5117126;28;20301;-47
2022/05/09 10:37:44;;;;;;;;;;;18.70;99.90;;;;;;5117314;28;19908;-49
2022/05/09 10:40:09;;;;;;;;;;;18.70;99.90;;;;;;5117322;28;19930;-48
2022/05/09 10:42:38;;;;;;;;;;;18.70;99.90;;;;;;5116670;28;20339;-48
2022/05/09 10:45:12;;;;;;;;;;;18.70;99.90;;;;;;5117027;28;19953;-49
2022/05/09 10:47:37;;;;;;;;;;;18.70;99.90;;;;;;5116566;28;19943;-48
2022/05/09 10:50:19;;;;;;;;;;;18.70;99.90;;;;;;5116780;28;20300;-50
2022/05/09 10:53:06;;;;;;;;;;;18.70;99.90;;;;;;5098665;28;19955;-47
2022/05/09 10:55:33;;;;;;;;;;;18.70;99.90;;;;;;5095172;28;19911;-51
2022/05/09 10:58:05;;;;;;;;;;;18.70;99.90;;;;;;5116759;28;19907;-46
2022/05/09 11:00:32;;;;;;;;;;;18.70;99.90;;;;;;5116516;28;19915;-48
2022/05/09 11:03:10;;;;;;;;;;;18.70;99.90;;;;;;5116948;28;20285;-46
2022/05/09 11:05:44;;;;;;;;;;;18.70;99.90;;;;;;5098341;28;19908;-51
2022/05/09 11:08:35;;;;;;;;;;;18.70;99.90;;;;;;5116229;28;20383;-51
2022/05/09 11:11:28;;;;;;;;;;;18.70;99.90;;;;;;5096745;28;19916;-49
2022/05/09 11:14:02;;;;;;;;;;;18.70;99.90;;;;;;5116463;28;20319;-47
2022/05/09 11:16:36;;;;;;;;;;;18.70;99.90;;;;;;5116347;28;20320;-48
2022/05/09 11:19:05;;;;;;;;;;;18.70;99.90;;;;;;5098339;28;19908;-47
2022/05/09 11:21:39;;;;;;;;;;;18.70;99.90;;;;;;5116028;28;19995;-47
2022/05/09 11:24:14;;;;;;;;;;;18.70;99.90;;;;;;5097989;28;19907;-46
2022/05/09 11:27:03;;;;;;;;;;;18.70;99.90;;;;;;5116040;28;19961;-48
2022/05/09 11:29:43;;;;;;;;;;;18.70;99.90;;;;;;5109820;28;19931;-46
2022/05/09 11:32:12;;;;;;;;;;;18.70;99.90;;;;;;5115954;28;19926;-48
2022/05/09 11:34:41;;;;;;;;;;;18.70;99.90;;;;;;5115796;28;20350;-47
2022/05/09 11:37:06;;;;;;;;;;;18.70;99.90;;;;;;5115988;28;19907;-49
2022/05/09 11:39:32;;;;;;;;;;;18.70;99.90;;;;;;5097577;28;19959;-48
2022/05/09 11:45:06;;;;;;;;;;;18.70;99.90;;;;;;5115947;28;19958;-48
2022/05/09 11:47:35;;;;;;;;;;;18.70;99.90;;;;;;5115892;28;20004;-48
2022/05/09 11:50:07;;;;;;;;;;;18.70;99.90;;;;;;5116060;28;19908;-45
2022/05/09 11:52:36;;;;;;;;;;;18.70;99.90;;;;;;5115406;28;19919;-51
2022/05/09 11:55:06;;;;;;;;;;;18.70;99.90;;;;;;5115769;28;19926;-48
2022/05/09 11:57:33;;;;;;;;;;;18.70;99.90;;;;;;5115550;28;20342;-44
2022/05/09 12:00:00;;;;;;;;;;;18.70;99.90;;;;;;5114414;28;20304;-45
2022/05/09 12:02:44;;;;;;;;;;;18.70;99.90;;;;;;5115508;28;19954;-49
2022/05/09 12:05:25;;;;;;;;;;;18.70;99.90;;;;;;5115677;28;19943;-46
2022/05/09 12:07:55;;;;;;;;;;;18.70;99.90;;;;;;5115045;28;20354;-47
2022/05/09 12:10:27;;;;;;;;;;;18.70;99.90;;;;;;5115851;28;19907;-46
2022/05/09 12:12:56;;;;;;;;;;;18.70;99.90;;;;;;5115378;28;19915;-47
2022/05/09 12:15:22;;;;;;;;;;;18.70;99.90;;;;;;5115035;28;20294;-47
2022/05/09 12:18:07;;;;;;;;;;;18.70;99.90;;;;;;5115371;28;19908;-49
2022/05/09 12:20:36;;;;;;;;;;;18.70;99.90;;;;;;5114963;28;19911;-45
2022/05/09 12:23:03;;;;;;;;;;;18.70;99.90;;;;;;5115219;28;19969;-45
2022/05/09 12:25:41;;;;;;;;;;;18.70;99.90;;;;;;5115387;28;20002;-48
2022/05/09 12:28:16;;;;;;;;;;;18.70;99.90;;;;;;5114762;28;19960;-47
2022/05/09 12:30:42;;;;;;;;;;;18.70;99.90;;;;;;5115165;28;19915;-47
2022/05/09 12:33:29;;;;;;;;;;;18.70;99.90;;;;;;5115054;28;20275;-46
2022/05/09 12:35:56;;;;;;;;;;;18.70;99.90;;;;;;5107525;28;19911;-47
2022/05/09 12:38:23;;;;;;;;;;;18.70;99.90;;;;;;5096730;28;19931;-46
2022/05/09 12:40:56;;;;;;;;;;;18.80;99.90;;;;;;5114679;28;19907;-44
2022/05/09 12:43:21;;;;;;;;;;;18.70;99.90;;;;;;5114886;28;19915;-46
2022/05/09 12:45:47;;;;;;;;;;;18.80;99.90;;;;;;5114847;28;19908;-47
2022/05/09 12:48:14;;;;;;;;;;;18.70;99.90;;;;;;5114859;28;19919;-48
2022/05/09 12:50:43;;;;;;;;;;;18.80;99.90;;;;;;5114800;28;20003;-45
2022/05/09 12:53:10;;;;;;;;;;;18.80;99.90;;;;;;5114588;28;19919;-46
2022/05/09 12:55:52;;;;;;;;;;;18.80;99.90;;;;;;5114268;28;19908;-45
2022/05/09 12:58:25;;;;;;;;;;;18.70;99.90;;;;;;5114740;28;19915;-45
2022/05/09 13:00:55;;;;;;;;;;;18.80;99.90;;;;;;5114276;28;19908;-46
2022/05/09 13:03:20;;;;;;;;;;;18.80;99.90;;;;;;5114001;28;19907;-49
2022/05/09 13:05:46;;;;;;;;;;;18.70;99.90;;;;;;5114351;28;19914;-47
2022/05/09 13:08:15;;;;;;;;;;;18.70;99.90;;;;;;5114312;28;20006;-44
2022/05/09 13:10:46;;;;;;;;;;;18.70;99.90;;;;;;5114316;28;19908;-51
2022/05/09 13:13:16;;;;;;;;;;;18.70;99.90;;;;;;5113803;28;19916;-46
2022/05/09 13:15:42;;;;;;;;;;;18.80;99.90;;;;;;5114112;28;19908;-49
2022/05/09 13:18:09;;;;;;;;;;;18.80;99.90;;;;;;5113691;28;19918;-44
2022/05/09 13:20:38;;;;;;;;;;;18.80;99.90;;;;;;5113687;28;19915;-46
2022/05/09 13:23:05;;;;;;;;;;;18.70;99.90;;;;;;5095580;28;20366;-46
2022/05/09 13:25:32;;;;;;;;;;;18.80;99.90;;;;;;5113554;28;19931;-47
2022/05/09 13:28:00;;;;;;;;;;;18.80;99.90;;;;;;5113974;28;19908;-47
2022/05/09 13:30:25;;;;;;;;;;;18.70;99.90;;;;;;5113602;28;20354;-45
2022/05/09 13:32:52;;;;;;;;;;;18.70;99.90;;;;;;5113833;28;19920;-46
2022/05/09 13:35:22;;;;;;;;;;;18.80;99.90;;;;;;5112983;28;21462;-48
2022/05/09 13:37:52;;;;;;;;;;;18.70;99.90;;;;;;5113898;28;19916;-52
2022/05/09 13:40:19;;;;;;;;;;;18.70;99.90;;;;;;5113534;28;19940;-46
2022/05/09 13:42:46;;;;;;;;;;;18.70;99.90;;;;;;5113708;28;19915;-49
2022/05/09 13:45:16;;;;;;;;;;;18.80;99.90;;;;;;5113610;28;19908;-48
2022/05/09 13:47:43;;;;;;;;;;;18.70;99.90;;;;;;5113844;28;19915;-47
2022/05/09 13:50:10;;;;;;;;;;;18.70;99.90;;;;;;5114036;28;19947;-46
2022/05/09 13:52:38;;;;;;;;;;;18.70;99.90;;;;;;5095687;28;20272;-45
2022/05/09 13:55:05;;;;;;;;;;;18.70;99.90;;;;;;5113491;28;19916;-46
2022/05/09 13:57:40;;;;;;;;;;;18.70;99.90;;;;;;5113584;28;20433;-46
2022/05/09 14:00:09;;;;;;;;;;;18.70;99.90;;;;;;5114021;28;19907;-47
2022/05/09 14:02:35;;;;;;;;;;;18.70;99.90;;;;;;5095581;28;19953;-45
2022/05/09 14:05:07;;;;;;;;;;;18.70;99.90;;;;;;5113841;28;20312;-44
2022/05/09 14:07:42;;;;;;;;;;;18.70;99.90;;;;;;5113501;28;19919;-51
2022/05/09 14:10:18;;;;;;;;;;;18.70;99.90;;;;;;5113953;28;19974;-49
2022/05/09 14:12:43;;;;;;;;;;;18.70;99.90;;;;;;5113670;28;19915;-45
2022/05/09 14:15:20;;;;;;;;;;;18.70;99.90;;;;;;5113832;28;20278;-47
2022/05/09 14:18:15;;;;;;;;;;;18.70;99.90;;;;;;5113794;28;19908;-49
2022/05/09 14:20:42;;;;;;;;;;;18.70;99.90;;;;;;5104212;28;19950;-45
2022/05/09 14:23:12;;;;;;;;;;;18.70;99.90;;;;;;5113614;28;19911;-46
2022/05/09 14:31:20;;;;;;;;;;;18.70;99.90;;;;;;5117131;28;19922;-48
2022/05/09 14:33:46;;;;;;;;;;;18.70;99.90;;;;;;5117594;28;20357;-49
2022/05/09 14:36:27;;;;;;;;;;;18.70;99.90;;;;;;5117332;28;19927;-49
2022/05/09 14:38:54;;;;;;;;;;;18.70;99.90;;;;;;5116839;28;19930;-48
2022/05/09 14:41:37;;;;;;;;;;;18.70;99.90;;;;;;5116876;28;19914;-45
2022/05/09 14:44:15;;;;;;;;;;;18.70;99.90;;;;;;5117334;28;19912;-48